Time,TemperatureF,DewpointF,PressureIn,WindDirection,WindDirectionDegrees,WindSpeedMPH,WindSpeedGustMPH,Humidity,HourlyPrecipIn,Conditions,Clouds,dailyrainin,SoftwareType,DateUTC
2013-04-01 00:00:00,63.1,59.8,30.04,WSW,244,0.0,0.0,89,0.00,,---,0.00,VWS V14.00,2013-04-01 04:00:00,
2013-04-01 00:05:00,63.1,59.5,30.04,WSW,244,0.0,0.0,88,0.00,,---,0.00,VWS V14.00,2013-04-01 04:05:00,
2013-04-01 00:10:00,63.1,59.5,30.03,WSW,244,0.0,0.0,88,0.00,,---,0.00,VWS V14.00,2013-04-01 04:10:00,
2013-04-01 00:13:00,62.9,59.3,30.03,WSW,244,0.0,0.0,88,0.00,,---,0.00,VWS V14.00,2013-04-01 04:13:00,
2013-04-01 00:15:00,62.9,59.3,30.03,WSW,244,0.0,0.0,88,0.00,,---,0.00,VWS V14.00,2013-04-01 04:15:00,
2013-04-01 00:18:00,62.8,59.2,30.03,WSW,244,0.0,0.0,88,0.00,,---,0.00,VWS V14.00,2013-04-01 04:18:00,
2013-04-01 00:20:00,62.7,59.1,30.03,WSW,244,0.0,0.0,88,0.00,,---,0.00,VWS V14.00,2013-04-01 04:20:00,
2013-04-01 00:23:00,62.6,59.3,30.03,WSW,244,0.0,0.0,89,0.00,,---,0.00,VWS V14.00,2013-04-01 04:23:00,
2013-04-01 00:25:00,62.6,59.3,30.03,WSW,244,0.0,0.0,89,0.00,,---,0.00,VWS V14.00,2013-04-01 04:25:00,
2013-04-01 00:28:00,62.5,59.2,30.02,WSW,244,0.0,0.0,89,0.00,,---,0.00,VWS V14.00,2013-04-01 04:28:00,
2013-04-01 00:30:00,62.5,59.2,30.02,WSW,244,0.0,0.0,89,0.00,,---,0.00,VWS V14.00,2013-04-01 04:30:00,
2013-04-01 00:33:00,62.4,59.1,30.02,WSW,244,0.0,0.0,89,0.00,,---,0.00,VWS V14.00,2013-04-01 04:33:00,
2013-04-01 00:35:00,62.4,59.1,30.02,WSW,244,0.0,0.0,89,0.00,,---,0.00,VWS V14.00,2013-04-01 04:35:00,
2013-04-01 00:38:00,62.3,59.0,30.02,WSW,244,0.0,0.0,89,0.00,,---,0.00,VWS V14.00,2013-04-01 04:38:00,
2013-04-01 00:40:00,62.3,59.0,30.03,WSW,244,0.0,0.0,89,0.00,,---,0.00,VWS V14.00,2013-04-01 04:40:00,
2013-04-01 00:43:00,62.2,58.9,30.03,WSW,244,0.0,0.0,89,0.00,,---,0.00,VWS V14.00,2013-04-01 04:43:00,
2013-04-01 00:45:00,62.2,59.2,30.03,WSW,244,0.0,0.0,90,0.00,,---,0.00,VWS V14.00,2013-04-01 04:45:00,
2013-04-01 00:48:00,62.2,59.2,30.03,WSW,244,0.0,0.0,90,0.00,,---,0.00,VWS V14.00,2013-04-01 04:48:00,
2013-04-01 00:50:00,62.2,59.2,30.03,WSW,244,0.0,0.0,90,0.00,,---,0.00,VWS V14.00,2013-04-01 04:50:00,
2013-04-01 00:53:00,62.2,59.2,30.02,WSW,244,0.0,0.0,90,0.00,,---,0.00,VWS V14.00,2013-04-01 04:53:00,
2013-04-01 00:55:00,62.2,59.5,30.02,WSW,244,0.0,0.0,91,0.00,,---,0.00,VWS V14.00,2013-04-01 04:55:00,
2013-04-01 00:58:00,62.3,59.6,30.02,WSW,244,0.0,0.0,91,0.00,,---,0.00,VWS V14.00,2013-04-01 04:58:00,
2013-04-01 01:00:00,62.3,59.6,30.02,WSW,244,0.0,0.0,91,0.00,,---,0.00,VWS V14.00,2013-04-01 05:00:00,
2013-04-01 01:03:00,62.5,59.8,30.02,WSW,244,0.0,0.0,91,0.00,,---,0.00,VWS V14.00,2013-04-01 05:03:00,
2013-04-01 01:05:00,62.5,59.8,30.01,WSW,244,0.0,0.0,91,0.00,,---,0.00,VWS V14.00,2013-04-01 05:05:00,
2013-04-01 01:08:00,62.6,59.9,30.01,WSW,244,0.0,0.0,91,0.00,,---,0.00,VWS V14.00,2013-04-01 05:08:00,
2013-04-01 01:10:00,62.7,60.0,30.01,WSW,244,0.0,0.0,91,0.00,,---,0.00,VWS V14.00,2013-04-01 05:10:00,
2013-04-01 01:13:00,62.8,60.1,30.01,WSW,244,0.0,0.0,91,0.00,,---,0.00,VWS V14.00,2013-04-01 05:13:00,
2013-04-01 01:15:00,62.8,60.1,30.01,WSW,244,0.0,0.0,91,0.00,,---,0.00,VWS V14.00,2013-04-01 05:15:00,
2013-04-01 01:18:00,62.9,60.2,30.01,WSW,244,0.0,0.0,91,0.00,,---,0.00,VWS V14.00,2013-04-01 05:18:00,
2013-04-01 01:20:00,62.9,60.2,30.01,WSW,244,0.0,0.0,91,0.00,,---,0.00,VWS V14.00,2013-04-01 05:20:00,
2013-04-01 01:23:00,63.0,60.6,30.01,WSW,244,0.0,0.0,92,0.00,,---,0.00,VWS V14.00,2013-04-01 05:23:00,
2013-04-01 01:25:00,63.0,60.6,30.01,WSW,244,0.0,0.0,92,0.00,,---,0.00,VWS V14.00,2013-04-01 05:25:00,
2013-04-01 01:28:00,63.1,60.4,30.01,WSW,244,0.0,0.0,91,0.00,,---,0.00,VWS V14.00,2013-04-01 05:28:00,
2013-04-01 01:30:00,63.1,60.4,30.01,WSW,244,0.0,0.0,91,0.00,,---,0.00,VWS V14.00,2013-04-01 05:30:00,
2013-04-01 01:33:00,63.1,60.4,30.01,WSW,244,0.0,0.0,91,0.00,,---,0.00,VWS V14.00,2013-04-01 05:33:00,
2013-04-01 01:35:00,63.1,60.4,30.01,WSW,244,0.0,0.0,91,0.00,,---,0.00,VWS V14.00,2013-04-01 05:35:00,
2013-04-01 01:38:00,63.1,60.4,30.01,WSW,244,0.0,0.0,91,0.00,,---,0.00,VWS V14.00,2013-04-01 05:38:00,
2013-04-01 01:40:00,63.1,60.4,30.01,WSW,244,0.0,0.0,91,0.00,,---,0.00,VWS V14.00,2013-04-01 05:40:00,
2013-04-01 01:43:00,63.2,60.5,30.01,WSW,244,0.0,0.0,91,0.00,,---,0.00,VWS V14.00,2013-04-01 05:43:00,
2013-04-01 01:45:00,63.1,60.4,30.01,WSW,244,0.0,0.0,91,0.00,,---,0.00,VWS V14.00,2013-04-01 05:45:00,
2013-04-01 01:48:00,63.2,60.8,30.01,WSW,244,0.0,0.0,92,0.00,,---,0.00,VWS V14.00,2013-04-01 05:48:00,
2013-04-01 01:50:00,63.2,60.8,30.01,WSW,244,0.0,0.0,92,0.00,,---,0.00,VWS V14.00,2013-04-01 05:50:00,
2013-04-01 01:53:00,63.2,60.5,30.01,WSW,244,0.0,0.0,91,0.00,,---,0.00,VWS V14.00,2013-04-01 05:53:00,
2013-04-01 01:55:00,63.2,60.5,30.00,WSW,244,0.0,0.0,91,0.00,,---,0.00,VWS V14.00,2013-04-01 05:55:00,
2013-04-01 01:58:00,63.3,60.6,30.00,WSW,244,0.0,0.0,91,0.00,,---,0.00,VWS V14.00,2013-04-01 05:58:00,
2013-04-01 02:00:00,63.3,60.6,30.00,WSW,244,0.0,0.0,91,0.00,,---,0.00,VWS V14.00,2013-04-01 06:00:00,
2013-04-01 02:03:00,63.3,60.6,30.00,WSW,244,0.0,0.0,91,0.00,,---,0.00,VWS V14.00,2013-04-01 06:03:00,
2013-04-01 02:05:00,63.3,60.6,30.00,WSW,244,0.0,0.0,91,0.00,,---,0.00,VWS V14.00,2013-04-01 06:05:00,
2013-04-01 02:08:00,63.3,60.6,30.00,WSW,244,0.0,0.0,91,0.00,,---,0.00,VWS V14.00,2013-04-01 06:08:00,
2013-04-01 02:10:00,63.3,60.6,30.00,WSW,244,0.0,0.0,91,0.00,,---,0.00,VWS V14.00,2013-04-01 06:10:00,
2013-04-01 02:13:00,63.3,60.6,30.00,WSW,244,0.0,0.0,91,0.00,,---,0.00,VWS V14.00,2013-04-01 06:13:00,
2013-04-01 02:15:00,63.3,60.6,30.00,WSW,244,0.0,0.0,91,0.00,,---,0.00,VWS V14.00,2013-04-01 06:15:00,
2013-04-01 02:18:00,63.3,60.6,30.00,WSW,244,0.0,0.0,91,0.00,,---,0.00,VWS V14.00,2013-04-01 06:18:00,
2013-04-01 02:20:00,63.3,60.6,30.00,WSW,244,0.0,0.0,91,0.00,,---,0.00,VWS V14.00,2013-04-01 06:20:00,
2013-04-01 02:23:00,63.3,60.6,30.00,WSW,244,0.0,0.0,91,0.00,,---,0.00,VWS V14.00,2013-04-01 06:23:00,
2013-04-01 02:25:00,63.3,60.6,30.00,WSW,244,0.0,0.0,91,0.00,,---,0.00,VWS V14.00,2013-04-01 06:25:00,
2013-04-01 02:28:00,63.4,61.0,30.00,WSW,244,0.0,0.0,92,0.00,,---,0.00,VWS V14.00,2013-04-01 06:28:00,
2013-04-01 02:30:00,63.4,61.0,30.00,WSW,244,0.0,0.0,92,0.00,,---,0.00,VWS V14.00,2013-04-01 06:30:00,
2013-04-01 02:33:00,63.4,61.0,29.99,WSW,244,0.0,0.0,92,0.00,,---,0.00,VWS V14.00,2013-04-01 06:33:00,
2013-04-01 02:35:00,63.4,61.0,29.99,WSW,244,0.0,0.0,92,0.00,,---,0.00,VWS V14.00,2013-04-01 06:35:00,
2013-04-01 02:38:00,63.4,61.0,29.99,WSW,244,0.0,0.0,92,0.00,,---,0.00,VWS V14.00,2013-04-01 06:38:00,
2013-04-01 02:40:00,63.4,61.0,29.99,WSW,244,0.0,0.0,92,0.00,,---,0.00,VWS V14.00,2013-04-01 06:40:00,
2013-04-01 02:43:00,63.5,61.1,29.99,WSW,244,0.0,0.0,92,0.00,,---,0.00,VWS V14.00,2013-04-01 06:43:00,
2013-04-01 02:45:00,63.5,61.1,29.99,WSW,244,0.0,0.0,92,0.00,,---,0.00,VWS V14.00,2013-04-01 06:45:00,
2013-04-01 02:48:00,63.5,61.1,29.99,WSW,244,0.0,0.0,92,0.00,,---,0.00,VWS V14.00,2013-04-01 06:48:00,
2013-04-01 02:50:00,63.5,61.1,29.99,WSW,244,0.0,0.0,92,0.00,,---,0.00,VWS V14.00,2013-04-01 06:50:00,
2013-04-01 02:53:00,63.5,61.1,29.99,WSW,244,0.0,0.0,92,0.00,,---,0.00,VWS V14.00,2013-04-01 06:53:00,
2013-04-01 02:55:00,63.5,61.1,29.99,WSW,244,0.0,0.0,92,0.00,,---,0.00,VWS V14.00,2013-04-01 06:55:00,
2013-04-01 02:58:00,63.5,61.1,29.99,WSW,244,0.0,0.0,92,0.00,,---,0.00,VWS V14.00,2013-04-01 06:58:00,
2013-04-01 03:00:00,63.5,61.1,29.99,WSW,244,0.0,0.0,92,0.00,,---,0.00,VWS V14.00,2013-04-01 07:00:00,
2013-04-01 03:04:00,63.5,61.1,29.99,WSW,244,0.0,0.0,92,0.00,,---,0.00,VWS V14.00,2013-04-01 07:04:00,
2013-04-01 03:05:00,63.5,61.1,29.99,WSW,244,0.0,0.0,92,0.00,,---,0.00,VWS V14.00,2013-04-01 07:05:00,
2013-04-01 03:09:00,63.5,61.1,29.98,WSW,244,0.0,0.0,92,0.00,,---,0.00,VWS V14.00,2013-04-01 07:09:00,
2013-04-01 03:10:00,63.5,61.1,29.98,WSW,244,0.0,0.0,92,0.00,,---,0.00,VWS V14.00,2013-04-01 07:10:00,
2013-04-01 03:14:00,63.4,61.0,29.99,WSW,244,0.0,0.0,92,0.00,,---,0.00,VWS V14.00,2013-04-01 07:14:00,
2013-04-01 03:15:00,63.4,61.0,29.99,WSW,244,0.0,0.0,92,0.00,,---,0.00,VWS V14.00,2013-04-01 07:15:00,
2013-04-01 03:19:00,63.4,61.0,29.99,WSW,244,0.0,0.0,92,0.00,,---,0.00,VWS V14.00,2013-04-01 07:19:00,
2013-04-01 03:20:00,63.4,61.0,29.99,WSW,244,0.0,0.0,92,0.00,,---,0.00,VWS V14.00,2013-04-01 07:20:00,
2013-04-01 03:24:00,63.5,61.1,29.98,WSW,244,0.0,0.0,92,0.00,,---,0.00,VWS V14.00,2013-04-01 07:24:00,
2013-04-01 03:25:00,63.4,61.0,29.98,WSW,244,0.0,0.0,92,0.00,,---,0.00,VWS V14.00,2013-04-01 07:25:00,
2013-04-01 03:29:00,63.5,61.1,29.98,WSW,244,0.0,0.0,92,0.00,,---,0.00,VWS V14.00,2013-04-01 07:29:00,
2013-04-01 03:30:00,63.5,61.1,29.98,WSW,244,0.0,0.0,92,0.00,,---,0.00,VWS V14.00,2013-04-01 07:30:00,
2013-04-01 03:34:00,63.5,61.1,29.98,WSW,244,0.0,0.0,92,0.00,,---,0.00,VWS V14.00,2013-04-01 07:34:00,
2013-04-01 03:35:00,63.5,61.1,29.98,WSW,244,0.0,0.0,92,0.00,,---,0.00,VWS V14.00,2013-04-01 07:35:00,
2013-04-01 03:39:00,63.5,61.1,29.97,WSW,244,0.0,0.0,92,0.00,,---,0.00,VWS V14.00,2013-04-01 07:39:00,
2013-04-01 03:40:00,63.5,61.1,29.97,WSW,244,0.0,0.0,92,0.00,,---,0.00,VWS V14.00,2013-04-01 07:40:00,
2013-04-01 03:44:00,63.4,61.0,29.97,WSW,244,0.0,0.0,92,0.00,,---,0.00,VWS V14.00,2013-04-01 07:44:00,
2013-04-01 03:45:00,63.4,61.0,29.97,WSW,244,0.0,0.0,92,0.00,,---,0.00,VWS V14.00,2013-04-01 07:45:00,
2013-04-01 03:49:00,63.4,61.0,29.98,WSW,244,0.0,0.0,92,0.00,,---,0.00,VWS V14.00,2013-04-01 07:49:00,
2013-04-01 03:50:00,63.4,61.0,29.98,WSW,244,0.0,0.0,92,0.00,,---,0.00,VWS V14.00,2013-04-01 07:50:00,
2013-04-01 03:54:00,63.2,60.8,29.98,WSW,244,0.0,0.0,92,0.00,,---,0.00,VWS V14.00,2013-04-01 07:54:00,
2013-04-01 03:55:00,63.2,60.8,29.98,WSW,244,0.0,0.0,92,0.00,,---,0.00,VWS V14.00,2013-04-01 07:55:00,
2013-04-01 03:59:00,63.1,60.7,29.98,WSW,244,0.0,0.0,92,0.00,,---,0.00,VWS V14.00,2013-04-01 07:59:00,
2013-04-01 04:00:00,63.1,60.7,29.98,WSW,244,0.0,0.0,92,0.00,,---,0.00,VWS V14.00,2013-04-01 08:00:00,
2013-04-01 04:04:00,63.0,60.6,29.98,WSW,244,0.0,0.0,92,0.00,,---,0.00,VWS V14.00,2013-04-01 08:04:00,
2013-04-01 04:05:00,63.0,60.6,29.98,WSW,244,0.0,0.0,92,0.00,,---,0.00,VWS V14.00,2013-04-01 08:05:00,
2013-04-01 04:09:00,62.8,60.5,29.98,WSW,244,0.0,0.0,92,0.00,,---,0.00,VWS V14.00,2013-04-01 08:09:00,
2013-04-01 04:10:00,62.8,60.5,29.98,WSW,244,0.0,0.0,92,0.00,,---,0.00,VWS V14.00,2013-04-01 08:10:00,
2013-04-01 04:14:00,62.6,60.2,29.98,WSW,244,0.0,0.0,92,0.00,,---,0.00,VWS V14.00,2013-04-01 08:14:00,
2013-04-01 04:15:00,62.6,60.2,29.98,WSW,244,0.0,0.0,92,0.00,,---,0.00,VWS V14.00,2013-04-01 08:15:00,
2013-04-01 04:19:00,62.5,60.2,29.98,WSW,244,0.0,0.0,92,0.00,,---,0.00,VWS V14.00,2013-04-01 08:19:00,
2013-04-01 04:20:00,62.5,60.2,29.98,WSW,244,0.0,0.0,92,0.00,,---,0.00,VWS V14.00,2013-04-01 08:20:00,
2013-04-01 04:24:00,62.4,60.3,29.98,WSW,244,0.0,0.0,93,0.00,,---,0.00,VWS V14.00,2013-04-01 08:24:00,
2013-04-01 04:25:00,62.4,60.3,29.98,WSW,244,0.0,0.0,93,0.00,,---,0.00,VWS V14.00,2013-04-01 08:25:00,
2013-04-01 04:29:00,62.2,60.2,29.97,WSW,244,0.0,0.0,93,0.00,,---,0.00,VWS V14.00,2013-04-01 08:29:00,
2013-04-01 04:30:00,62.2,60.2,29.97,WSW,244,0.0,0.0,93,0.00,,---,0.00,VWS V14.00,2013-04-01 08:30:00,
2013-04-01 04:35:00,62.2,60.2,29.97,WSW,244,0.0,0.0,93,0.00,,---,0.00,VWS V14.00,2013-04-01 08:35:00,
2013-04-01 04:39:00,62.1,60.4,29.97,WSW,244,0.0,0.0,94,0.00,,---,0.00,VWS V14.00,2013-04-01 08:39:00,
2013-04-01 04:40:00,62.1,60.4,29.97,WSW,244,0.0,0.0,94,0.00,,---,0.00,VWS V14.00,2013-04-01 08:40:00,
2013-04-01 04:44:00,62.2,60.5,29.97,WSW,244,0.0,0.0,94,0.00,,---,0.00,VWS V14.00,2013-04-01 08:44:00,
2013-04-01 04:45:00,62.2,60.5,29.97,WSW,244,0.0,0.0,94,0.00,,---,0.00,VWS V14.00,2013-04-01 08:45:00,
2013-04-01 04:49:00,62.3,60.6,29.96,WSW,244,0.0,1.0,94,0.00,,---,0.00,VWS V14.00,2013-04-01 08:49:00,
2013-04-01 04:50:00,62.3,60.6,29.96,WSW,244,0.0,1.0,94,0.00,,---,0.00,VWS V14.00,2013-04-01 08:50:00,
2013-04-01 04:54:00,62.3,60.8,29.96,WSW,244,0.0,0.0,95,0.00,,---,0.00,VWS V14.00,2013-04-01 08:54:00,
2013-04-01 04:55:00,62.3,60.8,29.96,WSW,244,0.0,0.0,95,0.00,,---,0.00,VWS V14.00,2013-04-01 08:55:00,
2013-04-01 04:59:00,62.4,61.0,29.96,WSW,244,0.0,0.0,95,0.00,,---,0.00,VWS V14.00,2013-04-01 08:59:00,
2013-04-01 05:00:00,62.4,61.0,29.97,WSW,244,0.0,0.0,95,0.00,,---,0.00,VWS V14.00,2013-04-01 09:00:00,
2013-04-01 05:04:00,62.5,61.0,29.96,WSW,244,0.0,0.0,95,0.00,,---,0.00,VWS V14.00,2013-04-01 09:04:00,
2013-04-01 05:05:00,62.5,61.0,29.96,WSW,244,0.0,0.0,95,0.00,,---,0.00,VWS V14.00,2013-04-01 09:05:00,
2013-04-01 05:09:00,62.5,61.0,29.96,WSW,244,0.0,0.0,95,0.00,,---,0.00,VWS V14.00,2013-04-01 09:09:00,
2013-04-01 05:10:00,62.5,61.0,29.96,WSW,244,0.0,0.0,95,0.00,,---,0.00,VWS V14.00,2013-04-01 09:10:00,
2013-04-01 05:14:00,62.6,61.2,29.96,WSW,244,0.0,0.0,95,0.00,,---,0.00,VWS V14.00,2013-04-01 09:14:00,
2013-04-01 05:15:00,62.6,61.2,29.96,WSW,244,0.0,0.0,95,0.00,,---,0.00,VWS V14.00,2013-04-01 09:15:00,
2013-04-01 05:19:00,62.6,61.2,29.97,WSW,244,0.0,0.0,95,0.00,,---,0.00,VWS V14.00,2013-04-01 09:19:00,
2013-04-01 05:20:00,62.6,61.2,29.97,WSW,244,0.0,0.0,95,0.00,,---,0.00,VWS V14.00,2013-04-01 09:20:00,
2013-04-01 05:24:00,62.5,61.0,29.97,WSW,244,0.0,0.0,95,0.00,,---,0.00,VWS V14.00,2013-04-01 09:24:00,
2013-04-01 05:25:00,62.5,61.0,29.97,WSW,244,0.0,0.0,95,0.00,,---,0.00,VWS V14.00,2013-04-01 09:25:00,
2013-04-01 05:29:00,62.5,61.0,29.97,WSW,244,0.0,0.0,95,0.00,,---,0.00,VWS V14.00,2013-04-01 09:29:00,
2013-04-01 05:30:00,62.5,61.0,29.97,WSW,244,0.0,0.0,95,0.00,,---,0.00,VWS V14.00,2013-04-01 09:30:00,
2013-04-01 05:34:00,62.7,61.2,29.96,WSW,244,0.0,0.0,95,0.00,,---,0.00,VWS V14.00,2013-04-01 09:34:00,
2013-04-01 05:35:00,62.7,61.2,29.96,WSW,244,0.0,0.0,95,0.00,,---,0.00,VWS V14.00,2013-04-01 09:35:00,
2013-04-01 05:39:00,62.9,61.5,29.97,WSW,244,0.0,0.0,95,0.00,,---,0.00,VWS V14.00,2013-04-01 09:39:00,
2013-04-01 05:40:00,62.9,61.5,29.97,WSW,244,0.0,0.0,95,0.00,,---,0.00,VWS V14.00,2013-04-01 09:40:00,
2013-04-01 05:44:00,62.8,61.3,29.97,WSW,244,0.0,0.0,95,0.00,,---,0.00,VWS V14.00,2013-04-01 09:44:00,
2013-04-01 05:45:00,62.8,61.3,29.97,WSW,244,0.0,0.0,95,0.00,,---,0.00,VWS V14.00,2013-04-01 09:45:00,
2013-04-01 05:49:00,62.7,61.2,29.98,WSW,244,0.0,0.0,95,0.00,,---,0.00,VWS V14.00,2013-04-01 09:49:00,
2013-04-01 05:50:00,62.7,61.2,29.98,WSW,244,0.0,0.0,95,0.00,,---,0.00,VWS V14.00,2013-04-01 09:50:00,
2013-04-01 05:54:00,62.7,61.2,29.97,WSW,244,0.0,0.0,95,0.00,,---,0.00,VWS V14.00,2013-04-01 09:54:00,
2013-04-01 05:55:00,62.7,61.2,29.97,WSW,244,0.0,0.0,95,0.00,,---,0.00,VWS V14.00,2013-04-01 09:55:00,
2013-04-01 05:59:00,62.6,61.2,29.98,WSW,244,0.0,0.0,95,0.00,,---,0.00,VWS V14.00,2013-04-01 09:59:00,
2013-04-01 06:00:00,62.6,61.2,29.98,WSW,244,0.0,0.0,95,0.00,,---,0.00,VWS V14.00,2013-04-01 10:00:00,
2013-04-01 06:04:00,62.5,61.0,29.97,WSW,244,0.0,0.0,95,0.00,,---,0.00,VWS V14.00,2013-04-01 10:04:00,
2013-04-01 06:05:00,62.5,61.0,29.97,WSW,244,0.0,0.0,95,0.00,,---,0.00,VWS V14.00,2013-04-01 10:05:00,
2013-04-01 06:09:00,62.4,61.0,29.97,WSW,244,0.0,0.0,95,0.00,,---,0.00,VWS V14.00,2013-04-01 10:09:00,
2013-04-01 06:10:00,62.4,61.0,29.97,WSW,244,0.0,0.0,95,0.00,,---,0.00,VWS V14.00,2013-04-01 10:10:00,
2013-04-01 06:14:00,62.5,61.3,29.98,WSW,244,0.0,0.0,96,0.00,,---,0.00,VWS V14.00,2013-04-01 10:14:00,
2013-04-01 06:15:00,62.5,61.3,29.97,WSW,244,0.0,0.0,96,0.00,,---,0.00,VWS V14.00,2013-04-01 10:15:00,
2013-04-01 06:19:00,62.7,61.5,29.98,WSW,244,0.0,0.0,96,0.00,,---,0.00,VWS V14.00,2013-04-01 10:19:00,
2013-04-01 06:20:00,62.7,61.5,29.98,WSW,244,0.0,0.0,96,0.00,,---,0.00,VWS V14.00,2013-04-01 10:20:00,
2013-04-01 06:24:00,62.8,61.7,29.98,WSW,244,0.0,0.0,96,0.00,,---,0.00,VWS V14.00,2013-04-01 10:24:00,
2013-04-01 06:25:00,62.8,61.7,29.98,WSW,244,0.0,0.0,96,0.00,,---,0.00,VWS V14.00,2013-04-01 10:25:00,
2013-04-01 06:29:00,63.0,61.8,29.98,WSW,244,0.0,0.0,96,0.00,,---,0.00,VWS V14.00,2013-04-01 10:29:00,
2013-04-01 06:30:00,63.0,61.8,29.98,WSW,244,0.0,0.0,96,0.00,,---,0.00,VWS V14.00,2013-04-01 10:30:00,
2013-04-01 06:34:00,63.1,61.9,29.98,WSW,244,0.0,0.0,96,0.00,,---,0.00,VWS V14.00,2013-04-01 10:34:00,
2013-04-01 06:35:00,63.1,61.9,29.98,WSW,244,0.0,0.0,96,0.00,,---,0.00,VWS V14.00,2013-04-01 10:35:00,
2013-04-01 06:39:00,63.1,61.9,29.99,WSW,244,0.0,0.0,96,0.00,,---,0.00,VWS V14.00,2013-04-01 10:39:00,
2013-04-01 06:40:00,63.1,61.9,29.99,WSW,244,0.0,0.0,96,0.00,,---,0.00,VWS V14.00,2013-04-01 10:40:00,
2013-04-01 06:44:00,63.2,62.0,29.99,WSW,244,0.0,0.0,96,0.00,,---,0.00,VWS V14.00,2013-04-01 10:44:00,
2013-04-01 06:45:00,63.2,62.0,29.99,WSW,244,0.0,0.0,96,0.00,,---,0.00,VWS V14.00,2013-04-01 10:45:00,
2013-04-01 06:49:00,63.3,62.1,30.00,WSW,244,0.0,0.0,96,0.00,,---,0.00,VWS V14.00,2013-04-01 10:49:00,
2013-04-01 06:50:00,63.3,62.1,30.00,WSW,244,0.0,0.0,96,0.00,,---,0.00,VWS V14.00,2013-04-01 10:50:00,
2013-04-01 06:54:00,63.2,62.0,29.99,WSW,244,0.0,0.0,96,0.00,,---,0.00,VWS V14.00,2013-04-01 10:54:00,
2013-04-01 06:55:00,63.2,62.0,29.99,WSW,244,0.0,0.0,96,0.00,,---,0.00,VWS V14.00,2013-04-01 10:55:00,
2013-04-01 06:59:00,63.2,62.0,30.00,WSW,244,0.0,0.0,96,0.00,,---,0.00,VWS V14.00,2013-04-01 10:59:00,
2013-04-01 07:00:00,63.2,62.0,30.00,WSW,244,0.0,0.0,96,0.00,,---,0.00,VWS V14.00,2013-04-01 11:00:00,
2013-04-01 07:04:00,63.1,61.9,30.00,WSW,244,0.0,0.0,96,0.00,,---,0.00,VWS V14.00,2013-04-01 11:04:00,
2013-04-01 07:05:00,63.1,61.9,30.00,WSW,244,0.0,0.0,96,0.00,,---,0.00,VWS V14.00,2013-04-01 11:05:00,
2013-04-01 07:09:00,63.1,61.9,30.00,WSW,244,0.0,0.0,96,0.00,,---,0.00,VWS V14.00,2013-04-01 11:09:00,
2013-04-01 07:10:00,63.1,61.9,30.00,WSW,244,0.0,0.0,96,0.00,,---,0.00,VWS V14.00,2013-04-01 11:10:00,
2013-04-01 07:14:00,63.1,61.9,30.00,WSW,244,0.0,0.0,96,0.00,,---,0.00,VWS V14.00,2013-04-01 11:14:00,
2013-04-01 07:15:00,63.0,61.8,30.00,WSW,244,0.0,0.0,96,0.00,,---,0.00,VWS V14.00,2013-04-01 11:15:00,
2013-04-01 07:19:00,63.0,61.8,30.00,WSW,244,0.0,0.0,96,0.00,,---,0.00,VWS V14.00,2013-04-01 11:19:00,
2013-04-01 07:20:00,63.0,61.8,30.00,WSW,244,0.0,0.0,96,0.00,,---,0.00,VWS V14.00,2013-04-01 11:20:00,
2013-04-01 07:24:00,63.1,61.9,30.01,WSW,244,0.0,0.0,96,0.00,,---,0.00,VWS V14.00,2013-04-01 11:24:00,
2013-04-01 07:25:00,63.1,61.9,30.01,WSW,244,0.0,0.0,96,0.00,,---,0.00,VWS V14.00,2013-04-01 11:25:00,
2013-04-01 07:29:00,63.1,61.9,30.00,WSW,244,0.0,0.0,96,0.00,,---,0.00,VWS V14.00,2013-04-01 11:29:00,
2013-04-01 07:30:00,63.1,61.9,30.00,WSW,244,0.0,0.0,96,0.00,,---,0.00,VWS V14.00,2013-04-01 11:30:00,
2013-04-01 07:34:00,63.2,62.3,30.01,WSW,244,0.0,0.0,97,0.00,,---,0.00,VWS V14.00,2013-04-01 11:34:00,
2013-04-01 07:35:00,63.2,62.3,30.01,WSW,244,0.0,0.0,97,0.00,,---,0.00,VWS V14.00,2013-04-01 11:35:00,
2013-04-01 07:39:00,63.2,62.3,30.01,WSW,244,0.0,0.0,97,0.00,,---,0.00,VWS V14.00,2013-04-01 11:39:00,
2013-04-01 07:40:00,63.3,62.4,30.01,WSW,244,0.0,0.0,97,0.00,,---,0.00,VWS V14.00,2013-04-01 11:40:00,
2013-04-01 07:44:00,63.3,62.4,30.01,WSW,244,0.0,0.0,97,0.00,,---,0.00,VWS V14.00,2013-04-01 11:44:00,
2013-04-01 07:45:00,63.3,62.4,30.01,WSW,244,0.0,0.0,97,0.00,,---,0.00,VWS V14.00,2013-04-01 11:45:00,
2013-04-01 07:49:00,63.4,62.5,30.01,WSW,244,0.0,0.0,97,0.00,,---,0.00,VWS V14.00,2013-04-01 11:49:00,
2013-04-01 07:50:00,63.4,62.5,30.01,WSW,244,0.0,0.0,97,0.00,,---,0.00,VWS V14.00,2013-04-01 11:50:00,
2013-04-01 07:54:00,63.4,62.5,30.01,WSW,244,0.0,0.0,97,0.00,,---,0.00,VWS V14.00,2013-04-01 11:54:00,
2013-04-01 07:55:00,63.4,62.5,30.01,WSW,244,0.0,0.0,97,0.00,,---,0.00,VWS V14.00,2013-04-01 11:55:00,
2013-04-01 07:59:00,63.6,62.7,30.01,WSW,244,0.0,0.0,97,0.00,,---,0.00,VWS V14.00,2013-04-01 11:59:00,
2013-04-01 08:00:00,63.6,62.7,30.01,WSW,244,0.0,0.0,97,0.00,,---,0.00,VWS V14.00,2013-04-01 12:00:00,
2013-04-01 08:04:00,63.8,62.9,30.01,WSW,244,0.0,0.0,97,0.00,,---,0.00,VWS V14.00,2013-04-01 12:04:00,
2013-04-01 08:05:00,63.8,62.9,30.01,WSW,244,0.0,0.0,97,0.00,,---,0.00,VWS V14.00,2013-04-01 12:05:00,
2013-04-01 08:09:00,64.1,63.2,30.01,WSW,244,0.0,0.0,97,0.00,,---,0.00,VWS V14.00,2013-04-01 12:09:00,
2013-04-01 08:10:00,64.1,63.2,30.01,WSW,244,0.0,0.0,97,0.00,,---,0.00,VWS V14.00,2013-04-01 12:10:00,
2013-04-01 08:14:00,64.4,63.5,30.01,WSW,244,0.0,0.0,97,0.00,,---,0.00,VWS V14.00,2013-04-01 12:14:00,
2013-04-01 08:15:00,64.4,63.5,30.01,WSW,244,0.0,0.0,97,0.00,,---,0.00,VWS V14.00,2013-04-01 12:15:00,
2013-04-01 08:19:00,64.7,64.1,30.01,WSW,244,0.0,0.0,98,0.00,,---,0.00,VWS V14.00,2013-04-01 12:19:00,
2013-04-01 08:20:00,64.7,64.1,30.01,WSW,244,0.0,0.0,98,0.00,,---,0.00,VWS V14.00,2013-04-01 12:20:00,
2013-04-01 08:24:00,64.9,64.3,30.01,WSW,244,0.0,0.0,98,0.00,,---,0.00,VWS V14.00,2013-04-01 12:24:00,
2013-04-01 08:25:00,64.9,64.3,30.01,WSW,244,0.0,0.0,98,0.00,,---,0.00,VWS V14.00,2013-04-01 12:25:00,
2013-04-01 08:29:00,65.0,64.1,30.02,WSW,244,0.0,0.0,97,0.00,,---,0.00,VWS V14.00,2013-04-01 12:29:00,
2013-04-01 08:30:00,65.0,64.1,30.02,WSW,244,0.0,0.0,97,0.00,,---,0.00,VWS V14.00,2013-04-01 12:30:00,
2013-04-01 08:34:00,65.3,64.7,30.02,WSW,244,0.0,0.0,98,0.00,,---,0.00,VWS V14.00,2013-04-01 12:34:00,
2013-04-01 08:35:00,65.3,64.7,30.02,WSW,244,0.0,0.0,98,0.00,,---,0.00,VWS V14.00,2013-04-01 12:35:00,
2013-04-01 08:39:00,65.5,64.6,30.02,WSW,244,0.0,0.0,97,0.00,,---,0.00,VWS V14.00,2013-04-01 12:39:00,
2013-04-01 08:40:00,65.6,65.0,30.02,WSW,244,0.0,0.0,98,0.00,,---,0.00,VWS V14.00,2013-04-01 12:40:00,
2013-04-01 08:44:00,65.8,65.2,30.02,WSW,244,0.0,0.0,98,0.00,,---,0.00,VWS V14.00,2013-04-01 12:44:00,
2013-04-01 08:45:00,65.8,65.2,30.02,WSW,244,0.0,0.0,98,0.00,,---,0.00,VWS V14.00,2013-04-01 12:45:00,
2013-04-01 08:49:00,66.2,65.6,30.02,WSW,244,0.0,0.0,98,0.00,,---,0.00,VWS V14.00,2013-04-01 12:49:00,
2013-04-01 08:50:00,66.2,65.6,30.02,WSW,244,0.0,0.0,98,0.00,,---,0.00,VWS V14.00,2013-04-01 12:50:00,
2013-04-01 08:54:00,66.4,65.8,30.02,WSW,244,0.0,0.0,98,0.00,,---,0.00,VWS V14.00,2013-04-01 12:54:00,
2013-04-01 08:55:00,66.4,65.8,30.02,WSW,244,0.0,0.0,98,0.00,,---,0.00,VWS V14.00,2013-04-01 12:55:00,
2013-04-01 08:59:00,66.7,66.1,30.03,WSW,244,0.0,0.0,98,0.00,,---,0.00,VWS V14.00,2013-04-01 12:59:00,
2013-04-01 09:00:00,66.7,66.1,30.03,WSW,244,0.0,0.0,98,0.00,,---,0.00,VWS V14.00,2013-04-01 13:00:00,
2013-04-01 09:04:00,67.0,66.4,30.03,WSW,244,0.0,0.0,98,0.00,,---,0.00,VWS V14.00,2013-04-01 13:04:00,
2013-04-01 09:05:00,67.0,66.4,30.03,WSW,244,0.0,0.0,98,0.00,,---,0.00,VWS V14.00,2013-04-01 13:05:00,
2013-04-01 09:09:00,67.2,66.6,30.03,WSW,244,0.0,0.0,98,0.00,,---,0.00,VWS V14.00,2013-04-01 13:09:00,
2013-04-01 09:10:00,67.2,66.6,30.03,WSW,244,0.0,0.0,98,0.00,,---,0.00,VWS V14.00,2013-04-01 13:10:00,
2013-04-01 09:14:00,67.5,66.9,30.03,WSW,244,0.0,0.0,98,0.00,,---,0.00,VWS V14.00,2013-04-01 13:14:00,
2013-04-01 09:15:00,67.5,66.9,30.03,WSW,244,0.0,4.0,98,0.00,,---,0.00,VWS V14.00,2013-04-01 13:15:00,
2013-04-01 09:19:00,67.8,67.2,30.03,SW,234,2.0,2.0,98,0.00,,---,0.00,VWS V14.00,2013-04-01 13:19:00,
2013-04-01 09:20:00,67.8,67.2,30.03,WSW,238,2.0,4.0,98,0.00,,---,0.00,VWS V14.00,2013-04-01 13:20:00,
2013-04-01 09:24:00,68.2,67.3,30.03,SW,215,0.0,0.0,97,0.00,,---,0.00,VWS V14.00,2013-04-01 13:24:00,
2013-04-01 09:25:00,68.2,67.3,30.03,SW,215,0.0,5.0,97,0.00,,---,0.00,VWS V14.00,2013-04-01 13:25:00,
2013-04-01 09:29:00,68.5,67.6,30.04,South,177,4.0,5.0,97,0.00,,---,0.00,VWS V14.00,2013-04-01 13:29:00,
2013-04-01 09:30:00,68.5,67.6,30.04,SSE,166,4.0,8.0,97,0.00,,---,0.00,VWS V14.00,2013-04-01 13:30:00,
2013-04-01 09:34:00,68.8,67.9,30.04,SW,217,7.0,10.0,97,0.00,,---,0.00,VWS V14.00,2013-04-01 13:34:00,
2013-04-01 09:35:00,68.8,67.9,30.04,WSW,241,8.0,8.0,97,0.00,,---,0.00,VWS V14.00,2013-04-01 13:35:00,
2013-04-01 09:39:00,68.9,67.7,30.04,SSW,205,0.0,0.0,96,0.00,,---,0.00,VWS V14.00,2013-04-01 13:39:00,
2013-04-01 09:40:00,68.9,67.7,30.04,SSW,205,0.0,10.0,96,0.00,,---,0.00,VWS V14.00,2013-04-01 13:40:00,
2013-04-01 09:44:00,69.1,67.9,30.04,SW,219,0.0,0.0,96,0.00,,---,0.00,VWS V14.00,2013-04-01 13:44:00,
2013-04-01 09:45:00,69.1,67.9,30.04,SW,219,0.0,6.0,96,0.00,,---,0.00,VWS V14.00,2013-04-01 13:45:00,
2013-04-01 09:49:00,69.4,68.2,30.04,SW,216,0.0,0.0,96,0.00,,---,0.00,VWS V14.00,2013-04-01 13:49:00,
2013-04-01 09:50:00,69.3,68.1,30.04,SW,216,0.0,2.0,96,0.00,,---,0.00,VWS V14.00,2013-04-01 13:50:00,
2013-04-01 09:54:00,69.7,68.2,30.04,SW,232,4.0,4.0,95,0.00,,---,0.00,VWS V14.00,2013-04-01 13:54:00,
2013-04-01 09:55:00,69.7,68.2,30.04,SW,232,0.0,7.0,95,0.00,,---,0.00,VWS V14.00,2013-04-01 13:55:00,
2013-04-01 09:59:00,70.1,68.0,30.04,SSW,199,0.0,0.0,93,0.00,,---,0.00,VWS V14.00,2013-04-01 13:59:00,
2013-04-01 10:00:00,70.0,67.9,30.04,SSW,199,0.0,8.0,93,0.00,,---,0.00,VWS V14.00,2013-04-01 14:00:00,
2013-04-01 10:04:00,70.5,68.1,30.04,SW,231,0.0,0.0,92,0.00,,---,0.00,VWS V14.00,2013-04-01 14:04:00,
2013-04-01 10:05:00,70.4,68.0,30.04,SW,231,0.0,8.0,92,0.00,,---,0.00,VWS V14.00,2013-04-01 14:05:00,
2013-04-01 10:09:00,71.2,68.4,30.04,South,175,1.0,2.0,91,0.00,,---,0.00,VWS V14.00,2013-04-01 14:09:00,
2013-04-01 10:10:00,71.1,68.3,30.04,SW,217,2.0,10.0,91,0.00,,---,0.00,VWS V14.00,2013-04-01 14:10:00,
2013-04-01 10:14:00,72.4,69.0,30.04,SSW,209,0.0,0.0,89,0.00,,---,0.00,VWS V14.00,2013-04-01 14:14:00,
2013-04-01 10:15:00,72.3,68.9,30.04,SSW,209,0.0,8.0,89,0.00,,---,0.00,VWS V14.00,2013-04-01 14:15:00,
2013-04-01 10:19:00,73.4,69.0,30.04,South,188,6.0,6.0,86,0.00,,---,0.00,VWS V14.00,2013-04-01 14:19:00,
2013-04-01 10:20:00,73.3,69.5,30.04,SSW,205,6.0,11.0,88,0.00,,---,0.00,VWS V14.00,2013-04-01 14:20:00,
2013-04-01 10:24:00,74.0,68.9,30.04,SSW,193,8.0,8.0,84,0.00,,---,0.00,VWS V14.00,2013-04-01 14:24:00,
2013-04-01 10:25:00,74.0,68.9,30.04,SSW,202,2.0,9.0,84,0.00,,---,0.00,VWS V14.00,2013-04-01 14:25:00,
2013-04-01 10:29:00,74.5,69.3,30.04,South,169,0.0,0.0,84,0.00,,---,0.00,VWS V14.00,2013-04-01 14:29:00,
2013-04-01 10:30:00,74.4,69.2,30.04,SSE,163,0.0,9.0,84,0.00,,---,0.00,VWS V14.00,2013-04-01 14:30:00,
2013-04-01 10:34:00,75.2,69.0,30.04,SW,225,0.0,7.0,81,0.00,,---,0.00,VWS V14.00,2013-04-01 14:34:00,
2013-04-01 10:35:00,75.1,68.9,30.04,SW,217,0.0,8.0,81,0.00,,---,0.00,VWS V14.00,2013-04-01 14:35:00,
2013-04-01 10:39:00,76.1,69.1,30.03,SSW,206,8.0,8.0,79,0.00,,---,0.00,VWS V14.00,2013-04-01 14:39:00,
2013-04-01 10:40:00,76.0,69.0,30.03,South,180,0.0,7.0,79,0.00,,---,0.00,VWS V14.00,2013-04-01 14:40:00,
2013-04-01 10:44:00,76.9,69.2,30.03,SW,223,0.0,0.0,77,0.00,,---,0.00,VWS V14.00,2013-04-01 14:44:00,
2013-04-01 10:45:00,76.9,69.2,30.03,SW,223,0.0,8.0,77,0.00,,---,0.00,VWS V14.00,2013-04-01 14:45:00,
2013-04-01 10:49:00,77.6,68.3,30.03,SSW,213,4.0,4.0,73,0.00,,---,0.00,VWS V14.00,2013-04-01 14:49:00,
2013-04-01 10:50:00,77.6,68.3,30.03,SSW,198,0.0,10.0,73,0.00,,---,0.00,VWS V14.00,2013-04-01 14:50:00,
2013-04-01 10:54:00,77.7,67.1,30.03,SSW,206,2.0,6.0,70,0.00,,---,0.00,VWS V14.00,2013-04-01 14:54:00,
2013-04-01 10:55:00,77.8,67.2,30.03,SSW,208,6.0,12.0,70,0.00,,---,0.00,VWS V14.00,2013-04-01 14:55:00,
2013-04-01 10:59:00,78.3,67.7,30.03,SW,222,0.0,4.0,70,0.00,,---,0.00,VWS V14.00,2013-04-01 14:59:00,
2013-04-01 11:00:00,78.2,67.6,30.03,SW,222,4.0,8.0,70,0.00,,---,0.00,VWS V14.00,2013-04-01 15:00:00,
2013-04-01 11:04:00,79.1,68.1,30.03,SSW,196,0.0,2.0,69,0.00,,---,0.00,VWS V14.00,2013-04-01 15:04:00,
2013-04-01 11:05:00,79.0,68.4,30.03,South,190,2.0,8.0,70,0.00,,---,0.00,VWS V14.00,2013-04-01 15:05:00,
2013-04-01 11:09:00,79.5,67.2,30.03,SSW,198,0.0,1.0,66,0.00,,---,0.00,VWS V14.00,2013-04-01 15:09:00,
2013-04-01 11:10:00,79.5,67.2,30.03,SSW,202,1.0,12.0,66,0.00,,---,0.00,VWS V14.00,2013-04-01 15:10:00,
2013-04-01 11:14:00,79.6,67.2,30.03,SW,225,6.0,6.0,66,0.00,,---,0.00,VWS V14.00,2013-04-01 15:14:00,
2013-04-01 11:15:00,79.6,67.2,30.03,SW,217,0.0,10.0,66,0.00,,---,0.00,VWS V14.00,2013-04-01 15:15:00,
2013-04-01 11:19:00,79.7,67.3,30.03,SSW,210,2.0,6.0,66,0.00,,---,0.00,VWS V14.00,2013-04-01 15:19:00,
2013-04-01 11:20:00,79.6,67.2,30.03,SW,235,1.0,14.0,66,0.00,,---,0.00,VWS V14.00,2013-04-01 15:20:00,
2013-04-01 11:24:00,79.9,66.7,30.03,SW,233,0.0,8.0,64,0.00,,---,0.00,VWS V14.00,2013-04-01 15:24:00,
2013-04-01 11:25:00,79.9,67.1,30.03,SW,222,5.0,10.0,65,0.00,,---,0.00,VWS V14.00,2013-04-01 15:25:00,
2013-04-01 11:29:00,80.4,68.0,30.03,SW,217,4.0,4.0,66,0.00,,---,0.00,VWS V14.00,2013-04-01 15:29:00,
2013-04-01 11:30:00,80.3,66.6,30.03,SW,225,0.0,9.0,63,0.00,,---,0.00,VWS V14.00,2013-04-01 15:30:00,
2013-04-01 11:34:00,81.1,66.4,30.03,SW,234,0.0,0.0,61,0.00,,---,0.00,VWS V14.00,2013-04-01 15:34:00,
2013-04-01 11:35:00,81.0,66.3,30.03,SW,236,0.0,10.0,61,0.00,,---,0.00,VWS V14.00,2013-04-01 15:35:00,
2013-04-01 11:39:00,82.0,66.8,30.03,SSW,198,7.0,7.0,60,0.00,,---,0.00,VWS V14.00,2013-04-01 15:39:00,
2013-04-01 11:40:00,81.9,66.7,30.03,SSW,200,4.0,10.0,60,0.00,,---,0.00,VWS V14.00,2013-04-01 15:40:00,
2013-04-01 11:44:00,82.1,65.9,30.02,West,277,7.0,7.0,58,0.00,,---,0.00,VWS V14.00,2013-04-01 15:44:00,
2013-04-01 11:45:00,82.1,65.9,30.02,WSW,246,4.0,12.0,58,0.00,,---,0.00,VWS V14.00,2013-04-01 15:45:00,
2013-04-01 11:50:00,81.7,65.5,30.02,SW,221,7.0,13.0,58,0.00,,---,0.00,VWS V14.00,2013-04-01 15:50:00,
2013-04-01 11:55:00,81.5,65.8,30.02,SSW,211,1.0,12.0,59,0.00,,---,0.00,VWS V14.00,2013-04-01 15:55:00,
2013-04-01 12:00:00,82.0,65.8,30.02,West,280,7.0,7.0,58,0.00,,---,0.00,VWS V14.00,2013-04-01 16:00:00,
2013-04-01 12:05:00,82.5,65.8,30.03,WSW,254,2.0,9.0,57,0.00,,---,0.00,VWS V14.00,2013-04-01 16:05:00,
2013-04-01 12:10:00,83.2,65.9,30.03,SW,223,2.0,2.0,56,0.00,,---,0.00,VWS V14.00,2013-04-01 16:10:00,
2013-04-01 12:15:00,83.0,65.2,30.02,WSW,252,7.0,11.0,55,0.00,,---,0.00,VWS V14.00,2013-04-01 16:15:00,
2013-04-01 12:20:00,83.2,65.4,30.02,WNW,282,8.0,10.0,55,0.00,,---,0.00,VWS V14.00,2013-04-01 16:20:00,
2013-04-01 12:25:00,83.2,64.8,30.02,SW,222,0.0,12.0,54,0.00,,---,0.00,VWS V14.00,2013-04-01 16:25:00,
2013-04-01 12:30:00,82.7,64.9,30.01,WNW,283,0.0,9.0,55,0.00,,---,0.00,VWS V14.00,2013-04-01 16:30:00,
2013-04-01 12:35:00,82.7,64.9,30.02,SSW,211,6.0,11.0,55,0.00,,---,0.00,VWS V14.00,2013-04-01 16:35:00,
2013-04-01 12:40:00,82.9,65.6,30.02,West,273,0.0,12.0,56,0.00,,---,0.00,VWS V14.00,2013-04-01 16:40:00,
2013-04-01 12:45:00,83.3,64.4,30.02,SSW,209,18.0,18.0,53,0.00,,---,0.00,VWS V14.00,2013-04-01 16:45:00,
2013-04-01 12:50:00,83.1,65.3,30.02,SSW,206,5.0,5.0,55,0.00,,---,0.00,VWS V14.00,2013-04-01 16:50:00,
2013-04-01 12:55:00,83.3,65.5,30.01,WNW,286,7.0,7.0,55,0.00,,---,0.00,VWS V14.00,2013-04-01 16:55:00,
2013-04-01 13:00:00,83.5,64.6,30.01,SW,223,2.0,7.0,53,0.00,,---,0.00,VWS V14.00,2013-04-01 17:00:00,
2013-04-01 13:05:00,83.8,64.9,30.01,WSW,240,3.0,9.0,53,0.00,,---,0.00,VWS V14.00,2013-04-01 17:05:00,
2013-04-01 13:10:00,83.9,64.4,30.02,SW,234,0.0,9.0,52,0.00,,---,0.00,VWS V14.00,2013-04-01 17:10:00,
2013-04-01 13:15:00,83.3,64.4,30.02,SSW,210,1.0,5.0,53,0.00,,---,0.00,VWS V14.00,2013-04-01 17:15:00,
2013-04-01 13:20:00,83.5,65.1,30.01,SW,219,3.0,10.0,54,0.00,,---,0.00,VWS V14.00,2013-04-01 17:20:00,
2013-04-01 13:25:00,83.6,64.1,30.01,SW,221,9.0,12.0,52,0.00,,---,0.00,VWS V14.00,2013-04-01 17:25:00,
2013-04-01 13:30:00,83.7,64.2,30.01,SW,219,4.0,7.0,52,0.00,,---,0.00,VWS V14.00,2013-04-01 17:30:00,
2013-04-01 13:35:00,83.9,64.4,30.01,SW,230,0.0,6.0,52,0.00,,---,0.00,VWS V14.00,2013-04-01 17:35:00,
2013-04-01 13:40:00,83.8,64.9,30.00,West,263,0.0,3.0,53,0.00,,---,0.00,VWS V14.00,2013-04-01 17:40:00,
2013-04-01 13:45:00,84.2,64.1,30.00,SW,229,0.0,6.0,51,0.00,,---,0.00,VWS V14.00,2013-04-01 17:45:00,
2013-04-01 13:50:00,84.0,63.9,30.00,SW,227,11.0,14.0,51,0.00,,---,0.00,VWS V14.00,2013-04-01 17:50:00,
2013-04-01 13:55:00,84.4,63.8,30.00,SW,218,8.0,8.0,50,0.00,,---,0.00,VWS V14.00,2013-04-01 17:55:00,
2013-04-01 14:00:00,85.0,64.9,30.00,SSW,205,4.0,7.0,51,0.00,,---,0.00,VWS V14.00,2013-04-01 18:00:00,
2013-04-01 14:05:00,84.7,64.0,30.00,SSW,207,5.0,7.0,50,0.00,,---,0.00,VWS V14.00,2013-04-01 18:05:00,
2013-04-01 14:10:00,84.8,63.5,30.00,SW,217,15.0,15.0,49,0.00,,---,0.00,VWS V14.00,2013-04-01 18:10:00,
2013-04-01 14:15:00,84.7,63.5,29.99,SW,220,15.0,16.0,49,0.00,,---,0.00,VWS V14.00,2013-04-01 18:15:00,
2013-04-01 14:20:00,84.1,62.9,29.99,SSW,208,6.0,6.0,49,0.00,,---,0.00,VWS V14.00,2013-04-01 18:20:00,
2013-04-01 14:25:00,84.4,64.3,29.99,WSW,252,0.0,4.0,51,0.00,,---,0.00,VWS V14.00,2013-04-01 18:25:00,
2013-04-01 14:30:00,84.7,62.9,29.99,SW,225,14.0,14.0,48,0.00,,---,0.00,VWS V14.00,2013-04-01 18:30:00,
2013-04-01 14:35:00,84.6,62.8,29.99,SW,222,11.0,12.0,48,0.00,,---,0.00,VWS V14.00,2013-04-01 18:35:00,
2013-04-01 14:40:00,84.3,63.7,29.99,SW,234,4.0,16.0,50,0.00,,---,0.00,VWS V14.00,2013-04-01 18:40:00,
2013-04-01 14:45:00,84.1,64.0,29.99,SW,229,2.0,8.0,51,0.00,,---,0.00,VWS V14.00,2013-04-01 18:45:00,
2013-04-01 14:50:00,84.4,64.3,29.98,WNW,286,9.0,13.0,51,0.00,,---,0.00,VWS V14.00,2013-04-01 18:50:00,
2013-04-01 14:55:00,84.5,64.4,29.98,SW,218,7.0,10.0,51,0.00,,---,0.00,VWS V14.00,2013-04-01 18:55:00,
2013-04-01 15:00:00,84.7,64.0,29.99,SW,227,6.0,9.0,50,0.00,,---,0.00,VWS V14.00,2013-04-01 19:00:00,
2013-04-01 15:05:00,84.5,64.4,29.98,SW,234,0.0,6.0,51,0.00,,---,0.00,VWS V14.00,2013-04-01 19:05:00,
2013-04-01 15:10:00,84.4,63.8,29.98,West,259,5.0,9.0,50,0.00,,---,0.00,VWS V14.00,2013-04-01 19:10:00,
2013-04-01 15:15:00,84.5,64.4,29.98,SW,227,0.0,10.0,51,0.00,,---,0.00,VWS V14.00,2013-04-01 19:15:00,
2013-04-01 15:20:00,84.5,64.4,29.98,WSW,246,3.0,12.0,51,0.00,,---,0.00,VWS V14.00,2013-04-01 19:20:00,
2013-04-01 15:25:00,84.8,64.1,29.98,SW,236,11.0,14.0,50,0.00,,---,0.00,VWS V14.00,2013-04-01 19:25:00,
2013-04-01 15:30:00,84.5,63.8,29.97,SW,232,0.0,9.0,50,0.00,,---,0.00,VWS V14.00,2013-04-01 19:30:00,
2013-04-01 15:35:00,84.8,64.1,29.97,WSW,240,0.0,9.0,50,0.00,,---,0.00,VWS V14.00,2013-04-01 19:35:00,
2013-04-01 15:40:00,84.6,64.5,29.97,WNW,287,9.0,10.0,51,0.00,,---,0.00,VWS V14.00,2013-04-01 19:40:00,
2013-04-01 15:45:00,84.9,63.6,29.97,SW,225,11.0,11.0,49,0.00,,---,0.00,VWS V14.00,2013-04-01 19:45:00,
2013-04-01 15:50:00,85.1,64.4,29.96,WSW,241,8.0,9.0,50,0.00,,---,0.00,VWS V14.00,2013-04-01 19:50:00,
2013-04-01 15:55:00,85.2,62.7,29.96,WNW,300,6.0,9.0,47,0.00,,---,0.00,VWS V14.00,2013-04-01 19:55:00,
2013-04-01 16:00:00,84.7,63.5,29.96,SW,218,2.0,10.0,49,0.00,,---,0.00,VWS V14.00,2013-04-01 20:00:00,
2013-04-01 16:05:00,83.9,63.3,29.96,SW,232,6.0,11.0,50,0.00,,---,0.00,VWS V14.00,2013-04-01 20:05:00,
2013-04-01 16:10:00,84.1,64.0,29.95,SW,225,8.0,10.0,51,0.00,,---,0.00,VWS V14.00,2013-04-01 20:10:00,
2013-04-01 16:15:00,84.4,63.8,29.95,SW,224,4.0,10.0,50,0.00,,---,0.00,VWS V14.00,2013-04-01 20:15:00,
2013-04-01 16:20:00,84.1,64.0,29.95,WSW,249,0.0,12.0,51,0.00,,---,0.00,VWS V14.00,2013-04-01 20:20:00,
2013-04-01 16:25:00,84.3,64.8,29.95,SW,234,2.0,11.0,52,0.00,,---,0.00,VWS V14.00,2013-04-01 20:25:00,
2013-04-01 16:30:00,84.8,64.1,29.95,WNW,286,5.0,9.0,50,0.00,,---,0.00,VWS V14.00,2013-04-01 20:30:00,
2013-04-01 16:35:00,85.0,64.3,29.95,SW,228,0.0,8.0,50,0.00,,---,0.00,VWS V14.00,2013-04-01 20:35:00,
2013-04-01 16:40:00,84.8,63.5,29.95,WNW,286,1.0,12.0,49,0.00,,---,0.00,VWS V14.00,2013-04-01 20:40:00,
2013-04-01 16:45:00,84.6,63.9,29.95,WNW,292,2.0,7.0,50,0.00,,---,0.00,VWS V14.00,2013-04-01 20:45:00,
2013-04-01 16:50:00,84.6,63.3,29.95,WNW,290,2.0,10.0,49,0.00,,---,0.00,VWS V14.00,2013-04-01 20:50:00,
2013-04-01 16:55:00,84.7,64.0,29.95,West,278,2.0,8.0,50,0.00,,---,0.00,VWS V14.00,2013-04-01 20:55:00,
2013-04-01 17:00:00,84.3,64.2,29.95,WSW,257,5.0,8.0,51,0.00,,---,0.00,VWS V14.00,2013-04-01 21:00:00,
2013-04-01 17:05:00,84.0,63.9,29.96,WSW,256,7.0,7.0,51,0.00,,---,0.00,VWS V14.00,2013-04-01 21:05:00,
2013-04-01 17:10:00,83.3,63.9,29.96,West,275,14.0,15.0,52,0.00,,---,0.00,VWS V14.00,2013-04-01 21:10:00,
2013-04-01 17:15:00,82.8,63.9,29.95,West,268,4.0,5.0,53,0.00,,---,0.00,VWS V14.00,2013-04-01 21:15:00,
2013-04-01 17:20:00,82.6,64.3,29.95,WNW,282,5.0,7.0,54,0.00,,---,0.00,VWS V14.00,2013-04-01 21:20:00,
2013-04-01 17:25:00,82.5,64.2,29.95,West,265,0.0,10.0,54,0.00,,---,0.00,VWS V14.00,2013-04-01 21:25:00,
2013-04-01 17:30:00,82.3,64.5,29.95,SW,233,1.0,4.0,55,0.00,,---,0.00,VWS V14.00,2013-04-01 21:30:00,
2013-04-01 17:35:00,82.4,63.6,29.95,West,274,8.0,8.0,53,0.00,,---,0.00,VWS V14.00,2013-04-01 21:35:00,
2013-04-01 17:40:00,82.3,63.5,29.96,WSW,246,4.0,14.0,53,0.00,,---,0.00,VWS V14.00,2013-04-01 21:40:00,
2013-04-01 17:45:00,81.7,64.0,29.96,SSW,207,4.0,7.0,55,0.00,,---,0.00,VWS V14.00,2013-04-01 21:45:00,
2013-04-01 17:50:00,81.1,64.4,29.95,SW,229,6.0,6.0,57,0.00,,---,0.00,VWS V14.00,2013-04-01 21:50:00,
2013-04-01 17:55:00,81.1,64.9,29.96,West,264,4.0,14.0,58,0.00,,---,0.00,VWS V14.00,2013-04-01 21:55:00,
2013-04-01 18:00:00,81.0,64.8,29.96,West,275,2.0,2.0,58,0.00,,---,0.00,VWS V14.00,2013-04-01 22:00:00,
2013-04-01 18:05:00,81.0,62.8,29.96,West,280,6.0,7.0,54,0.00,,---,0.00,VWS V14.00,2013-04-01 22:05:00,
2013-04-01 18:10:00,80.7,63.6,29.96,West,275,8.0,8.0,56,0.00,,---,0.00,VWS V14.00,2013-04-01 22:10:00,
2013-04-01 18:15:00,80.5,62.9,29.96,West,281,5.0,9.0,55,0.00,,---,0.00,VWS V14.00,2013-04-01 22:15:00,
2013-04-01 18:20:00,80.0,62.4,29.96,NW,306,6.0,8.0,55,0.00,,---,0.00,VWS V14.00,2013-04-01 22:20:00,
2013-04-01 18:25:00,79.6,63.0,29.97,WNW,290,12.0,12.0,57,0.00,,---,0.00,VWS V14.00,2013-04-01 22:25:00,
2013-04-01 18:30:00,79.5,63.0,29.96,West,280,0.0,5.0,57,0.00,,---,0.00,VWS V14.00,2013-04-01 22:30:00,
2013-04-01 18:35:00,79.3,63.3,29.97,WNW,290,0.0,5.0,58,0.00,,---,0.00,VWS V14.00,2013-04-01 22:35:00,
2013-04-01 18:40:00,79.2,63.2,29.97,SSW,193,0.0,6.0,58,0.00,,---,0.00,VWS V14.00,2013-04-01 22:40:00,
2013-04-01 18:45:00,79.1,62.6,29.97,West,280,4.0,10.0,57,0.00,,---,0.00,VWS V14.00,2013-04-01 22:45:00,
2013-04-01 18:50:00,78.8,62.8,29.97,West,281,7.0,14.0,58,0.00,,---,0.00,VWS V14.00,2013-04-01 22:50:00,
2013-04-01 18:55:00,78.4,62.9,29.97,WNW,282,6.0,13.0,59,0.00,,---,0.00,VWS V14.00,2013-04-01 22:55:00,
2013-04-01 19:00:00,78.1,62.6,29.97,West,278,4.0,7.0,59,0.00,,---,0.00,VWS V14.00,2013-04-01 23:00:00,
2013-04-01 19:05:00,77.9,62.9,29.97,West,270,10.0,10.0,60,0.00,,---,0.00,VWS V14.00,2013-04-01 23:05:00,
2013-04-01 19:10:00,77.6,63.1,29.97,WSW,246,0.0,0.0,61,0.00,,---,0.00,VWS V14.00,2013-04-01 23:10:00,
2013-04-01 19:15:00,77.5,63.0,29.97,WNW,282,0.0,4.0,61,0.00,,---,0.00,VWS V14.00,2013-04-01 23:15:00,
2013-04-01 19:20:00,77.2,63.2,29.97,West,280,9.0,9.0,62,0.00,,---,0.00,VWS V14.00,2013-04-01 23:20:00,
2013-04-01 19:25:00,76.9,63.4,29.97,West,271,5.0,6.0,63,0.00,,---,0.00,VWS V14.00,2013-04-01 23:25:00,
2013-04-01 19:30:00,76.7,63.2,29.97,West,273,1.0,7.0,63,0.00,,---,0.00,VWS V14.00,2013-04-01 23:30:00,
2013-04-01 19:35:00,76.4,63.3,29.98,West,267,0.0,4.0,64,0.00,,---,0.00,VWS V14.00,2013-04-01 23:35:00,
2013-04-01 19:40:00,76.1,63.5,29.98,WNW,284,5.0,5.0,65,0.00,,---,0.00,VWS V14.00,2013-04-01 23:40:00,
2013-04-01 19:45:00,75.7,63.1,29.98,West,277,0.0,5.0,65,0.00,,---,0.00,VWS V14.00,2013-04-01 23:45:00,
2013-04-01 19:50:00,75.4,62.8,29.98,WNW,292,0.0,5.0,65,0.00,,---,0.00,VWS V14.00,2013-04-01 23:50:00,
2013-04-01 19:55:00,75.1,63.0,29.98,WNW,290,0.0,0.0,66,0.00,,---,0.00,VWS V14.00,2013-04-01 23:55:00,
2013-04-01 20:00:00,74.8,63.1,29.98,West,281,5.0,7.0,67,0.00,,---,0.00,VWS V14.00,2013-04-02 00:00:00,
2013-04-01 20:05:00,74.5,63.3,29.98,West,276,8.0,8.0,68,0.00,,---,0.00,VWS V14.00,2013-04-02 00:05:00,
2013-04-01 20:10:00,74.3,63.1,29.98,West,281,0.0,0.0,68,0.00,,---,0.00,VWS V14.00,2013-04-02 00:10:00,
2013-04-01 20:15:00,74.2,63.0,29.98,WNW,294,0.0,6.0,68,0.00,,---,0.00,VWS V14.00,2013-04-02 00:15:00,
2013-04-01 20:20:00,74.0,63.2,29.99,WNW,283,0.0,8.0,69,0.00,,---,0.00,VWS V14.00,2013-04-02 00:20:00,
2013-04-01 20:25:00,73.8,63.0,29.99,West,281,0.0,0.0,69,0.00,,---,0.00,VWS V14.00,2013-04-02 00:25:00,
2013-04-01 20:30:00,73.6,63.2,29.99,West,278,0.0,0.0,70,0.00,,---,0.00,VWS V14.00,2013-04-02 00:30:00,
2013-04-01 20:35:00,73.4,63.4,29.99,West,279,0.0,0.0,71,0.00,,---,0.00,VWS V14.00,2013-04-02 00:35:00,
2013-04-01 20:40:00,73.2,63.6,29.99,West,279,0.0,0.0,72,0.00,,---,0.00,VWS V14.00,2013-04-02 00:40:00,
2013-04-01 20:45:00,72.9,63.3,29.99,West,279,0.0,0.0,72,0.00,,---,0.00,VWS V14.00,2013-04-02 00:45:00,
2013-04-01 20:50:00,72.7,63.5,29.99,West,279,0.0,0.0,73,0.00,,---,0.00,VWS V14.00,2013-04-02 00:50:00,
2013-04-01 20:55:00,72.5,63.8,29.99,West,279,0.0,0.0,74,0.00,,---,0.00,VWS V14.00,2013-04-02 00:55:00,
2013-04-01 21:00:00,72.3,63.6,29.99,West,279,0.0,0.0,74,0.00,,---,0.00,VWS V14.00,2013-04-02 01:00:00,
2013-04-01 21:05:00,72.1,63.8,29.99,West,279,0.0,0.0,75,0.00,,---,0.00,VWS V14.00,2013-04-02 01:05:00,
2013-04-01 21:10:00,71.9,64.3,30.00,West,279,2.0,2.0,77,0.00,,---,0.00,VWS V14.00,2013-04-02 01:10:00,
2013-04-01 21:15:00,71.7,64.5,30.00,West,279,0.0,0.0,78,0.00,,---,0.00,VWS V14.00,2013-04-02 01:15:00,
2013-04-01 21:20:00,71.6,64.8,30.00,West,279,0.0,0.0,79,0.00,,---,0.00,VWS V14.00,2013-04-02 01:20:00,
2013-04-01 21:25:00,71.5,64.7,30.00,West,279,0.0,0.0,79,0.00,,---,0.00,VWS V14.00,2013-04-02 01:25:00,
2013-04-01 21:30:00,71.3,64.8,30.00,West,279,0.0,0.0,80,0.00,,---,0.00,VWS V14.00,2013-04-02 01:30:00,
2013-04-01 21:35:00,71.3,64.8,30.00,West,279,0.0,0.0,80,0.00,,---,0.00,VWS V14.00,2013-04-02 01:35:00,
2013-04-01 21:40:00,71.2,65.1,30.01,West,279,0.0,0.0,81,0.00,,---,0.00,VWS V14.00,2013-04-02 01:40:00,
2013-04-01 21:41:00,71.2,65.1,30.01,West,279,0.0,0.0,81,0.00,,---,0.00,VWS V14.00,2013-04-02 01:41:00,
2013-04-01 21:45:00,71.0,64.9,30.01,West,279,0.0,0.0,81,0.00,,---,0.00,VWS V14.00,2013-04-02 01:45:00,
2013-04-01 21:50:00,70.8,65.0,30.01,West,279,0.0,0.0,82,0.00,,---,0.00,VWS V14.00,2013-04-02 01:50:00,
2013-04-01 21:51:00,70.8,65.0,30.01,West,279,0.0,0.0,82,0.00,,---,0.00,VWS V14.00,2013-04-02 01:51:00,
2013-04-01 21:55:00,70.7,65.3,30.01,West,279,0.0,0.0,83,0.00,,---,0.00,VWS V14.00,2013-04-02 01:55:00,
2013-04-01 21:56:00,70.6,65.2,30.01,West,279,0.0,0.0,83,0.00,,---,0.00,VWS V14.00,2013-04-02 01:56:00,
2013-04-01 22:00:00,70.5,65.1,30.01,West,279,0.0,0.0,83,0.00,,---,0.00,VWS V14.00,2013-04-02 02:00:00,
2013-04-01 22:01:00,70.5,65.1,30.01,West,279,0.0,0.0,83,0.00,,---,0.00,VWS V14.00,2013-04-02 02:01:00,
2013-04-01 22:05:00,70.3,65.2,30.01,West,279,0.0,0.0,84,0.00,,---,0.00,VWS V14.00,2013-04-02 02:05:00,
2013-04-01 22:06:00,70.3,65.2,30.01,West,279,0.0,0.0,84,0.00,,---,0.00,VWS V14.00,2013-04-02 02:06:00,
2013-04-01 22:10:00,70.2,65.1,30.01,West,279,0.0,0.0,84,0.00,,---,0.00,VWS V14.00,2013-04-02 02:10:00,
2013-04-01 22:11:00,70.1,65.1,30.01,West,279,0.0,0.0,84,0.00,,---,0.00,VWS V14.00,2013-04-02 02:11:00,
2013-04-01 22:15:00,70.0,65.3,30.01,West,279,0.0,0.0,85,0.00,,---,0.00,VWS V14.00,2013-04-02 02:15:00,
2013-04-01 22:16:00,69.9,65.2,30.01,West,279,0.0,0.0,85,0.00,,---,0.00,VWS V14.00,2013-04-02 02:16:00,
2013-04-01 22:20:00,69.7,65.0,30.01,West,279,0.0,0.0,85,0.00,,---,0.00,VWS V14.00,2013-04-02 02:20:00,
2013-04-01 22:21:00,69.7,65.0,30.01,West,279,0.0,0.0,85,0.00,,---,0.00,VWS V14.00,2013-04-02 02:21:00,
2013-04-01 22:25:00,69.6,65.2,30.01,West,279,0.0,0.0,86,0.00,,---,0.00,VWS V14.00,2013-04-02 02:25:00,
2013-04-01 22:26:00,69.5,65.5,30.01,West,279,0.0,1.0,87,0.00,,---,0.00,VWS V14.00,2013-04-02 02:26:00,
2013-04-01 22:30:00,69.5,65.5,30.01,West,279,0.0,2.0,87,0.00,,---,0.00,VWS V14.00,2013-04-02 02:30:00,
2013-04-01 22:31:00,69.5,65.8,30.01,West,279,0.0,0.0,88,0.00,,---,0.00,VWS V14.00,2013-04-02 02:31:00,
2013-04-01 22:35:00,69.5,65.8,30.01,West,279,0.0,0.0,88,0.00,,---,0.00,VWS V14.00,2013-04-02 02:35:00,
2013-04-01 22:36:00,69.6,65.9,30.01,West,279,0.0,0.0,88,0.00,,---,0.00,VWS V14.00,2013-04-02 02:36:00,
2013-04-01 22:40:00,69.5,65.8,30.02,West,279,0.0,0.0,88,0.00,,---,0.00,VWS V14.00,2013-04-02 02:40:00,
2013-04-01 22:41:00,69.5,65.8,30.02,West,279,0.0,0.0,88,0.00,,---,0.00,VWS V14.00,2013-04-02 02:41:00,
2013-04-01 22:45:00,69.4,65.7,30.02,West,279,0.0,0.0,88,0.00,,---,0.00,VWS V14.00,2013-04-02 02:45:00,
2013-04-01 22:46:00,69.4,65.7,30.02,West,279,0.0,0.0,88,0.00,,---,0.00,VWS V14.00,2013-04-02 02:46:00,
2013-04-01 22:50:00,69.4,65.7,30.02,West,279,0.0,0.0,88,0.00,,---,0.00,VWS V14.00,2013-04-02 02:50:00,
2013-04-01 22:51:00,69.4,65.7,30.02,West,279,0.0,0.0,88,0.00,,---,0.00,VWS V14.00,2013-04-02 02:51:00,
2013-04-01 22:55:00,69.3,65.9,30.02,West,279,0.0,0.0,89,0.00,,---,0.00,VWS V14.00,2013-04-02 02:55:00,
2013-04-01 22:56:00,69.3,65.9,30.02,West,279,0.0,0.0,89,0.00,,---,0.00,VWS V14.00,2013-04-02 02:56:00,
2013-04-01 23:00:00,69.2,65.8,30.02,West,279,0.0,0.0,89,0.00,,---,0.00,VWS V14.00,2013-04-02 03:00:00,
2013-04-01 23:01:00,69.2,65.8,30.02,West,279,0.0,0.0,89,0.00,,---,0.00,VWS V14.00,2013-04-02 03:01:00,
2013-04-01 23:05:00,69.2,65.8,30.02,West,279,0.0,0.0,89,0.00,,---,0.00,VWS V14.00,2013-04-02 03:05:00,
2013-04-01 23:06:00,69.2,65.8,30.02,West,279,0.0,0.0,89,0.00,,---,0.00,VWS V14.00,2013-04-02 03:06:00,
2013-04-01 23:10:00,69.0,65.6,30.02,West,279,0.0,0.0,89,0.00,,---,0.00,VWS V14.00,2013-04-02 03:10:00,
2013-04-01 23:11:00,69.0,65.6,30.01,West,279,0.0,0.0,89,0.00,,---,0.00,VWS V14.00,2013-04-02 03:11:00,
2013-04-01 23:15:00,69.0,65.9,30.02,West,279,0.0,0.0,90,0.00,,---,0.00,VWS V14.00,2013-04-02 03:15:00,
2013-04-01 23:16:00,68.9,65.8,30.02,West,279,0.0,0.0,90,0.00,,---,0.00,VWS V14.00,2013-04-02 03:16:00,
2013-04-01 23:20:00,68.8,65.8,30.02,West,279,0.0,0.0,90,0.00,,---,0.00,VWS V14.00,2013-04-02 03:20:00,
2013-04-01 23:21:00,68.8,65.4,30.02,West,279,0.0,0.0,89,0.00,,---,0.00,VWS V14.00,2013-04-02 03:21:00,
2013-04-01 23:25:00,68.7,65.3,30.02,West,279,0.0,0.0,89,0.00,,---,0.00,VWS V14.00,2013-04-02 03:25:00,
2013-04-01 23:26:00,68.6,65.2,30.02,West,279,0.0,0.0,89,0.00,,---,0.00,VWS V14.00,2013-04-02 03:26:00,
2013-04-01 23:30:00,68.5,65.1,30.02,West,279,0.0,0.0,89,0.00,,---,0.00,VWS V14.00,2013-04-02 03:30:00,
2013-04-01 23:32:00,68.3,64.9,30.02,West,279,0.0,0.0,89,0.00,,---,0.00,VWS V14.00,2013-04-02 03:32:00,
2013-04-01 23:35:00,68.2,64.8,30.02,West,279,0.0,0.0,89,0.00,,---,0.00,VWS V14.00,2013-04-02 03:35:00,
2013-04-01 23:37:00,68.1,64.7,30.02,West,279,0.0,0.0,89,0.00,,---,0.00,VWS V14.00,2013-04-02 03:37:00,
2013-04-01 23:40:00,68.0,65.0,30.02,West,279,0.0,0.0,90,0.00,,---,0.00,VWS V14.00,2013-04-02 03:40:00,
2013-04-01 23:42:00,67.9,64.9,30.01,West,279,0.0,0.0,90,0.00,,---,0.00,VWS V14.00,2013-04-02 03:42:00,
2013-04-01 23:45:00,67.8,64.8,30.01,West,279,0.0,0.0,90,0.00,,---,0.00,VWS V14.00,2013-04-02 03:45:00,
2013-04-01 23:47:00,67.8,65.1,30.01,West,279,0.0,0.0,91,0.00,,---,0.00,VWS V14.00,2013-04-02 03:47:00,
2013-04-01 23:50:00,67.7,65.0,30.02,West,279,0.0,0.0,91,0.00,,---,0.00,VWS V14.00,2013-04-02 03:50:00,
2013-04-01 23:52:00,67.6,65.2,30.02,West,279,0.0,0.0,92,0.00,,---,0.00,VWS V14.00,2013-04-02 03:52:00,
2013-04-01 23:55:00,67.6,64.9,30.02,West,279,0.0,0.0,91,0.00,,---,0.00,VWS V14.00,2013-04-02 03:55:00,
2013-04-01 23:57:00,67.5,64.8,30.02,West,279,0.0,0.0,91,0.00,,---,0.00,VWS V14.00,2013-04-02 03:57:00,